createdAt,value
2019-05-23T00:00:51.847Z,1014.48
2019-05-23T00:01:52.271Z,1014.46
2019-05-23T00:02:52.695Z,1014.43
2019-05-23T00:03:53.160Z,1014.49
2019-05-23T00:04:53.591Z,1014.48
2019-05-23T00:05:54.131Z,1014.54
2019-05-23T00:06:54.593Z,1014.52
2019-05-23T00:07:55.138Z,1014.48
2019-05-23T00:08:55.577Z,1014.51
2019-05-23T00:09:56.068Z,1014.54
2019-05-23T00:10:56.507Z,1014.50
2019-05-23T00:11:57.006Z,1014.53
2019-05-23T00:12:57.495Z,1014.60
2019-05-23T00:13:58.974Z,1014.58
2019-05-23T00:14:59.418Z,1014.60
2019-05-23T00:15:59.942Z,1014.56
2019-05-23T00:17:00.361Z,1014.60
2019-05-23T00:18:00.835Z,1014.55
2019-05-23T00:19:01.280Z,1014.59
2019-05-23T00:20:01.772Z,1014.59
2019-05-23T00:21:02.238Z,1014.53
2019-05-23T00:22:02.717Z,1014.51
2019-05-23T00:23:03.144Z,1014.47
2019-05-23T00:24:03.661Z,1014.54
2019-05-23T00:25:04.121Z,1014.51
2019-05-23T00:26:04.613Z,1014.56
2019-05-23T00:27:05.038Z,1014.48
2019-05-23T00:28:05.521Z,1014.51
2019-05-23T00:29:10.696Z,1014.54
2019-05-23T00:30:11.369Z,1014.58
2019-05-23T00:31:11.809Z,1014.60
2019-05-23T00:32:12.303Z,1014.61
2019-05-23T00:33:12.728Z,1014.61
2019-05-23T00:34:13.251Z,1014.57
2019-05-23T00:35:13.694Z,1014.60
2019-05-23T00:36:15.232Z,1014.56
2019-05-23T00:37:15.655Z,1014.63
2019-05-23T00:38:16.132Z,1014.61
2019-05-23T00:39:16.564Z,1014.65
2019-05-23T00:40:18.093Z,1014.60
2019-05-23T00:41:18.537Z,1014.63
2019-05-23T00:42:21.078Z,1014.62
2019-05-23T00:43:21.505Z,1014.61
2019-05-23T00:44:28.740Z,1014.60
2019-05-23T00:45:29.160Z,1014.60
2019-05-23T00:46:29.730Z,1014.60
2019-05-23T00:47:30.170Z,1014.58
2019-05-23T00:48:30.743Z,1014.59
2019-05-23T00:49:31.187Z,1014.61
2019-05-23T00:50:31.715Z,1014.58
2019-05-23T00:51:32.177Z,1014.57
2019-05-23T00:52:32.721Z,1014.50
2019-05-23T00:53:33.146Z,1014.52
2019-05-23T00:54:33.654Z,1014.51
2019-05-23T00:55:34.082Z,1014.54
2019-05-23T00:56:34.632Z,1014.55
2019-05-23T00:57:35.051Z,1014.54
2019-05-23T00:58:35.659Z,1014.46
2019-05-23T00:59:36.104Z,1014.56
2019-05-23T01:00:36.667Z,1014.57
2019-05-23T01:01:38.013Z,1014.48
2019-05-23T01:02:38.623Z,1014.47
2019-05-23T01:03:39.057Z,1014.52
2019-05-23T01:04:40.592Z,1014.51
2019-05-23T01:05:41.028Z,1014.51
2019-05-23T01:06:41.748Z,1014.49
2019-05-23T01:07:42.173Z,1014.50
2019-05-23T01:08:42.754Z,1014.55
2019-05-23T01:09:43.182Z,1014.48
2019-05-23T01:10:43.692Z,1014.52
2019-05-23T01:11:44.136Z,1014.57
2019-05-23T01:12:44.628Z,1014.57
2019-05-23T01:13:45.056Z,1014.54
2019-05-23T01:14:46.607Z,1014.54
2019-05-23T01:15:47.062Z,1014.51
2019-05-23T01:16:47.657Z,1014.54
2019-05-23T01:17:48.147Z,1014.56
2019-05-23T01:18:48.662Z,1014.57
2019-05-23T01:19:49.084Z,1014.57
2019-05-23T01:20:49.599Z,1014.59
2019-05-23T01:21:50.307Z,1014.61
2019-05-23T01:22:52.891Z,1014.55
2019-05-23T01:23:53.310Z,1014.58
2019-05-23T01:25:02.632Z,1014.58
2019-05-23T01:26:03.067Z,1014.61
2019-05-23T01:27:17.614Z,1014.63
2019-05-23T01:28:18.047Z,1014.60
2019-05-23T01:29:26.202Z,1014.59
2019-05-23T01:30:26.628Z,1014.60
2019-05-23T01:31:27.130Z,1014.54
2019-05-23T01:32:27.575Z,1014.59
2019-05-23T01:33:28.065Z,1014.53
2019-05-23T01:34:28.485Z,1014.54
2019-05-23T01:35:30.025Z,1014.59
2019-05-23T01:36:30.479Z,1014.52
2019-05-23T01:37:30.995Z,1014.51
2019-05-23T01:38:31.428Z,1014.54
2019-05-23T01:39:32.919Z,1014.50
2019-05-23T01:40:33.342Z,1014.55
2019-05-23T01:41:33.853Z,1014.51
2019-05-23T01:42:34.290Z,1014.48
2019-05-23T01:43:34.789Z,1014.45
2019-05-23T01:44:35.214Z,1014.49
2019-05-23T01:45:35.732Z,1014.46
2019-05-23T01:46:36.156Z,1014.52
2019-05-23T01:47:36.681Z,1014.55
2019-05-23T01:48:37.116Z,1014.52
2019-05-23T01:49:39.618Z,1014.54
2019-05-23T01:50:40.042Z,1014.53
2019-05-23T01:51:40.555Z,1014.50
2019-05-23T01:52:41.010Z,1014.50
2019-05-23T01:53:43.538Z,1014.48
2019-05-23T01:54:43.965Z,1014.50
2019-05-23T01:55:51.127Z,1014.48
2019-05-23T01:56:51.563Z,1014.48
2019-05-23T01:57:52.109Z,1014.43
2019-05-23T01:58:52.552Z,1014.45
2019-05-23T02:00:08.349Z,1014.43
2019-05-23T02:00:59.511Z,1014.46
2019-05-23T02:02:06.637Z,1014.42
2019-05-23T02:03:07.115Z,1014.47
2019-05-23T02:04:07.671Z,1014.42
2019-05-23T02:05:08.093Z,1014.45
2019-05-23T02:06:08.625Z,1014.44
2019-05-23T02:07:09.074Z,1014.47
2019-05-23T02:08:09.578Z,1014.46
2019-05-23T02:09:10.005Z,1014.45
2019-05-23T02:12:47.722Z,1014.45
2019-05-23T02:16:00.540Z,1014.51
2019-05-23T02:17:01.239Z,1014.47
2019-05-23T02:22:21.880Z,1014.40
2019-05-23T02:23:22.347Z,1014.43
2019-05-23T02:26:39.468Z,1014.40
2019-05-23T02:27:39.898Z,1014.40
2019-05-23T02:31:31.051Z,1014.29
2019-05-23T02:32:31.487Z,1014.28
2019-05-23T02:42:07.174Z,1014.24
2019-05-23T02:43:07.783Z,1014.22
2019-05-23T02:44:08.254Z,1014.26
2019-05-23T02:45:08.676Z,1014.18
2019-05-23T02:46:09.109Z,1014.25
2019-05-23T02:47:09.530Z,1014.24
2019-05-23T02:48:09.954Z,1014.16
2019-05-23T02:49:10.395Z,1014.14
2019-05-23T02:50:10.822Z,1014.21
2019-05-23T02:51:11.263Z,1014.17
2019-05-23T02:52:11.694Z,1014.17
2019-05-23T02:53:12.117Z,1014.19
2019-05-23T02:54:12.567Z,1014.18
2019-05-23T02:55:13.024Z,1014.18
2019-05-23T02:56:13.473Z,1014.24
2019-05-23T02:57:13.898Z,1014.11
2019-05-23T02:58:14.344Z,1014.19
2019-05-23T02:59:14.795Z,1014.15
2019-05-23T03:00:15.227Z,1014.17
2019-05-23T03:01:15.657Z,1014.18
2019-05-23T03:02:16.076Z,1014.19
2019-05-23T03:03:16.503Z,1014.14
2019-05-23T03:04:16.963Z,1014.19
2019-05-23T03:05:17.386Z,1014.14
2019-05-23T03:06:17.828Z,1014.14
2019-05-23T03:07:18.270Z,1014.14
2019-05-23T03:08:18.705Z,1014.12
2019-05-23T03:09:19.229Z,1014.14
2019-05-23T03:10:19.660Z,1014.15
2019-05-23T03:11:20.106Z,1014.13
2019-05-23T03:12:24.767Z,1014.15
2019-05-23T03:13:25.633Z,1014.08
2019-05-23T03:14:26.093Z,1014.06
2019-05-23T03:15:26.529Z,1014.08
2019-05-23T03:16:26.955Z,1014.11
2019-05-23T03:17:27.586Z,1014.08
2019-05-23T03:18:28.007Z,1014.08
2019-05-23T03:19:28.461Z,1014.06
2019-05-23T03:20:28.897Z,1014.09
2019-05-23T03:21:30.472Z,1014.09
2019-05-23T03:22:30.957Z,1014.13
2019-05-23T03:23:31.415Z,1014.14
2019-05-23T03:24:31.876Z,1014.15
2019-05-23T03:25:32.309Z,1014.11
2019-05-23T03:26:32.747Z,1014.07
2019-05-23T03:27:33.190Z,1014.10
2019-05-23T03:28:33.645Z,1014.07
2019-05-23T03:29:34.252Z,1014.06
2019-05-23T03:30:34.713Z,1014.09
2019-05-23T03:31:35.154Z,1014.09
2019-05-23T03:32:38.799Z,1014.11
2019-05-23T03:33:39.934Z,1014.11
2019-05-23T03:34:40.405Z,1014.12
2019-05-23T03:35:42.350Z,1014.10
2019-05-23T03:36:42.779Z,1014.09
2019-05-23T03:37:43.199Z,1014.11
2019-05-23T03:38:43.653Z,1014.11
2019-05-23T03:39:44.155Z,1014.10
2019-05-23T03:40:44.577Z,1014.03
2019-05-23T03:41:45.009Z,1014.02
2019-05-23T03:42:45.439Z,1013.99
2019-05-23T03:43:45.997Z,1014.04
2019-05-23T03:44:46.452Z,1014.02
2019-05-23T03:45:46.898Z,1014.06
2019-05-23T03:46:47.447Z,1014.02
2019-05-23T03:47:47.874Z,1014.07
2019-05-23T03:48:48.315Z,1014.02
2019-05-23T03:49:49.037Z,1014.00
2019-05-23T03:50:49.467Z,1014.03
2019-05-23T03:51:49.893Z,1014.01
2019-05-23T03:52:50.323Z,1014.01
2019-05-23T03:53:50.761Z,1013.99
2019-05-23T03:54:51.236Z,1014.00
2019-05-23T03:55:51.669Z,1014.06
2019-05-23T03:56:52.104Z,1014.01
2019-05-23T03:57:52.543Z,1014.00
2019-05-23T03:58:53.075Z,1014.02
2019-05-23T03:59:53.541Z,1014.04
2019-05-23T04:00:54.007Z,1014.02
2019-05-23T04:01:54.456Z,1014.08
2019-05-23T04:02:54.903Z,1013.98
2019-05-23T04:03:57.369Z,1013.99
2019-05-23T04:04:57.840Z,1013.98
2019-05-23T04:05:58.267Z,1014.01
2019-05-23T04:06:58.719Z,1013.99
2019-05-23T04:07:59.151Z,1013.97
2019-05-23T04:08:59.685Z,1013.92
2019-05-23T04:10:00.169Z,1014.07
2019-05-23T04:11:00.610Z,1014.01
2019-05-23T04:12:01.059Z,1013.96
2019-05-23T04:13:01.482Z,1014.00
2019-05-23T04:14:01.979Z,1014.02
2019-05-23T04:15:02.438Z,1013.99
2019-05-23T04:16:02.887Z,1014.05
2019-05-23T04:17:03.321Z,1013.99
2019-05-23T04:18:03.760Z,1014.03
2019-05-23T04:19:04.188Z,1014.00
2019-05-23T04:20:04.654Z,1013.98
2019-05-23T04:21:05.086Z,1014.00
2019-05-23T04:22:05.527Z,1013.91
2019-05-23T04:23:05.968Z,1013.91
2019-05-23T04:24:06.392Z,1013.94
2019-05-23T04:25:06.856Z,1013.93
2019-05-23T04:26:07.303Z,1013.93
2019-05-23T04:27:07.732Z,1013.98
2019-05-23T04:28:08.165Z,1013.98
2019-05-23T04:29:08.599Z,1014.00
2019-05-23T04:30:09.064Z,1013.99
2019-05-23T04:31:12.911Z,1013.95
2019-05-23T04:32:13.884Z,1013.91
2019-05-23T04:33:14.392Z,1013.95
2019-05-23T04:34:14.852Z,1013.91
2019-05-23T04:35:15.347Z,1013.99
2019-05-23T04:36:15.793Z,1013.99
2019-05-23T04:37:16.250Z,1013.92
2019-05-23T04:38:16.675Z,1013.92
2019-05-23T04:39:17.094Z,1013.94
2019-05-23T04:40:17.563Z,1013.98
2019-05-23T04:41:18.133Z,1013.94
2019-05-23T04:42:18.567Z,1013.93
2019-05-23T04:43:19.104Z,1014.00
2019-05-23T04:44:19.537Z,1013.98
2019-05-23T04:45:20.091Z,1013.99
2019-05-23T04:46:20.515Z,1013.97
2019-05-23T04:47:20.952Z,1013.99
2019-05-23T04:48:21.390Z,1013.97
2019-05-23T04:49:21.829Z,1013.91
2019-05-23T04:50:22.291Z,1013.95
2019-05-23T04:51:22.716Z,1013.92
2019-05-23T04:52:23.142Z,1014.03
2019-05-23T04:53:23.575Z,1013.95
2019-05-23T04:54:23.998Z,1014.01
2019-05-23T04:55:24.485Z,1013.99
2019-05-23T04:56:24.911Z,1013.94
2019-05-23T04:57:25.337Z,1013.94
2019-05-23T04:58:25.753Z,1013.96
2019-05-23T04:59:26.196Z,1014.00
2019-05-23T05:00:26.699Z,1013.95
2019-05-23T05:01:27.139Z,1013.92
2019-05-23T05:02:27.562Z,1014.01
2019-05-23T05:03:27.993Z,1013.95
2019-05-23T05:04:28.428Z,1013.94
2019-05-23T05:05:28.891Z,1013.95
2019-05-23T05:06:29.316Z,1013.98
2019-05-23T05:07:29.751Z,1013.97
2019-05-23T05:08:30.178Z,1013.91
2019-05-23T05:09:30.806Z,1013.97
2019-05-23T05:10:32.361Z,1013.93
2019-05-23T05:11:32.894Z,1013.96
2019-05-23T05:12:33.320Z,1014.01
2019-05-23T05:13:33.778Z,1013.99
2019-05-23T05:14:34.228Z,1013.97
2019-05-23T05:15:34.686Z,1013.97
2019-05-23T05:16:35.114Z,1013.95
2019-05-23T05:17:35.541Z,1013.97
2019-05-23T05:18:35.986Z,1013.96
2019-05-23T05:19:36.417Z,1013.95
2019-05-23T05:20:36.874Z,1013.93
2019-05-23T05:21:37.353Z,1013.98
2019-05-23T05:22:37.777Z,1013.95
2019-05-23T05:26:33.197Z,1013.98
2019-05-23T05:29:50.294Z,1014.03
2019-05-23T05:31:27.161Z,1014.03
2019-05-23T05:32:43.465Z,1014.00
2019-05-23T05:34:59.076Z,1013.99
2019-05-23T05:39:01.620Z,1014.04
2019-05-23T05:40:04.145Z,1014.00
2019-05-23T05:41:04.602Z,1014.03
2019-05-23T05:47:49.559Z,1014.05
2019-05-23T05:48:50.039Z,1014.16
2019-05-23T05:49:50.561Z,1014.13
2019-05-23T05:50:51.011Z,1014.08
2019-05-23T05:51:51.492Z,1014.11
2019-05-23T05:52:51.920Z,1014.05
2019-05-23T05:53:52.349Z,1014.10
2019-05-23T05:54:52.845Z,1014.03
2019-05-23T05:55:54.312Z,1014.13
2019-05-23T05:56:54.841Z,1014.14
2019-05-23T05:57:56.383Z,1014.12
2019-05-23T05:58:56.841Z,1014.18
2019-05-23T05:59:57.309Z,1014.19
2019-05-23T06:00:57.742Z,1014.15
2019-05-23T06:01:58.280Z,1014.09
2019-05-23T06:03:04.362Z,1014.14
2019-05-23T06:04:05.222Z,1014.04
2019-05-23T06:05:05.653Z,1014.04
2019-05-23T06:06:06.156Z,1014.11
2019-05-23T06:07:06.621Z,1014.03
2019-05-23T06:08:07.083Z,1014.10
2019-05-23T06:09:07.516Z,1014.08
2019-05-23T06:10:08.014Z,1014.04
2019-05-23T06:11:08.437Z,1014.04
2019-05-23T06:12:08.986Z,1014.08
2019-05-23T06:13:09.419Z,1014.03
2019-05-23T06:14:09.884Z,1014.09
2019-05-23T06:15:10.314Z,1014.09
2019-05-23T06:16:10.819Z,1014.10
2019-05-23T06:17:11.377Z,1014.10
2019-05-23T06:18:11.811Z,1014.14
2019-05-23T06:19:12.271Z,1014.12
2019-05-23T06:20:12.693Z,1014.13
2019-05-23T06:21:13.208Z,1014.22
2019-05-23T06:22:13.650Z,1014.17
2019-05-23T06:23:14.144Z,1014.20
2019-05-23T06:24:14.562Z,1014.15
2019-05-23T06:25:15.083Z,1014.17
2019-05-23T06:26:15.541Z,1014.15
2019-05-23T06:27:16.052Z,1014.16
2019-05-23T06:28:16.498Z,1014.18
2019-05-23T06:29:16.935Z,1014.16
2019-05-23T06:30:17.364Z,1014.21
2019-05-23T06:31:17.801Z,1014.24
2019-05-23T06:32:18.319Z,1014.21
2019-05-23T06:33:23.101Z,1014.18
2019-05-23T06:34:25.193Z,1014.23
2019-05-23T06:35:25.761Z,1014.22
2019-05-23T06:36:26.230Z,1014.24
2019-05-23T06:37:26.730Z,1014.21
2019-05-23T06:38:27.237Z,1014.20
2019-05-23T06:39:27.657Z,1014.13
2019-05-23T06:40:28.084Z,1014.17
2019-05-23T06:41:28.509Z,1014.14
2019-05-23T06:42:29.958Z,1014.15
2019-05-23T06:43:30.482Z,1014.17
2019-05-23T06:44:30.911Z,1014.20
2019-05-23T06:45:31.338Z,1014.08
2019-05-23T06:46:31.812Z,1014.12
2019-05-23T06:47:32.256Z,1014.11
2019-05-23T06:48:32.693Z,1014.17
2019-05-23T06:49:33.130Z,1014.12
2019-05-23T06:50:33.595Z,1014.11
2019-05-23T06:51:34.048Z,1014.09
2019-05-23T06:52:34.502Z,1014.10
2019-05-23T06:53:34.937Z,1014.04
2019-05-23T06:54:35.371Z,1014.04
2019-05-23T06:55:35.804Z,1014.00
2019-05-23T06:56:36.275Z,1013.99
2019-05-23T06:57:36.839Z,1014.03
2019-05-23T06:58:37.280Z,1014.12
2019-05-23T06:59:37.728Z,1014.04
2019-05-23T07:00:38.173Z,1014.10
2019-05-23T07:01:38.616Z,1014.07
2019-05-23T07:02:39.080Z,1014.12
2019-05-23T07:03:42.979Z,1014.18
2019-05-23T07:04:43.965Z,1014.10
2019-05-23T07:05:44.404Z,1014.12
2019-05-23T07:06:45.854Z,1014.12
2019-05-23T07:07:46.288Z,1014.13
2019-05-23T07:08:46.738Z,1014.13
2019-05-23T07:09:47.161Z,1014.14
2019-05-23T07:10:47.591Z,1014.12
2019-05-23T07:11:48.021Z,1014.12
2019-05-23T07:12:48.508Z,1014.09
2019-05-23T07:13:49.003Z,1014.09
2019-05-23T07:14:49.498Z,1014.13
2019-05-23T07:15:49.926Z,1014.10
2019-05-23T07:16:50.537Z,1014.12
2019-05-23T07:17:51.042Z,1014.08
2019-05-23T07:18:51.677Z,1014.07
2019-05-23T07:19:52.111Z,1014.07
2019-05-23T07:20:52.539Z,1014.04
2019-05-23T07:21:52.981Z,1014.04
2019-05-23T07:22:53.435Z,1014.03
2019-05-23T07:23:53.968Z,1014.08
2019-05-23T07:24:58.394Z,1014.07
2019-05-23T07:25:59.394Z,1014.03
2019-05-23T07:26:59.916Z,1014.09
2019-05-23T07:28:00.373Z,1014.08
2019-05-23T07:29:00.816Z,1014.09
2019-05-23T07:30:01.296Z,1014.05
2019-05-23T07:31:01.814Z,1014.08
2019-05-23T07:32:02.255Z,1014.10
2019-05-23T07:33:03.003Z,1014.09
2019-05-23T07:34:03.423Z,1014.11
2019-05-23T07:35:03.879Z,1014.08
2019-05-23T07:36:04.328Z,1014.08
2019-05-23T07:37:04.798Z,1014.04
2019-05-23T07:38:05.249Z,1014.03
2019-05-23T07:39:05.734Z,1014.02
2019-05-23T07:40:06.167Z,1014.03
2019-05-23T07:41:06.673Z,1014.04
2019-05-23T07:42:07.111Z,1014.05
2019-05-23T07:43:07.645Z,1014.01
2019-05-23T07:44:08.081Z,1014.03
2019-05-23T07:45:08.549Z,1014.05
2019-05-23T07:46:08.968Z,1014.10
2019-05-23T07:47:09.410Z,1014.04
2019-05-23T07:48:09.891Z,1014.11
2019-05-23T07:49:10.412Z,1014.08
2019-05-23T07:50:10.840Z,1014.02
2019-05-23T07:51:11.422Z,1014.04
2019-05-23T07:52:11.878Z,1014.02
2019-05-23T07:53:12.418Z,1014.05
2019-05-23T07:54:13.253Z,1014.10
2019-05-23T07:55:14.038Z,1014.00
2019-05-23T07:56:14.466Z,1014.02
2019-05-23T07:58:23.502Z,1014.01
2019-05-23T07:59:26.045Z,1014.03
2019-05-23T08:00:26.624Z,1013.98
2019-05-23T08:01:27.094Z,1014.03
2019-05-23T08:02:27.605Z,1014.01
2019-05-23T08:03:28.053Z,1013.97
2019-05-23T08:04:28.538Z,1013.97
2019-05-23T08:05:28.966Z,1013.97
2019-05-23T08:06:29.479Z,1014.03
2019-05-23T08:07:32.652Z,1013.98
2019-05-23T08:08:33.618Z,1013.94
2019-05-23T08:09:34.039Z,1013.98
2019-05-23T08:10:34.784Z,1013.94
2019-05-23T08:11:35.260Z,1013.97
2019-05-23T08:12:35.776Z,1013.95
2019-05-23T08:13:36.228Z,1013.95
2019-05-23T08:14:36.702Z,1014.01
2019-05-23T08:15:37.135Z,1013.90
2019-05-23T08:16:37.600Z,1013.92
2019-05-23T08:17:38.195Z,1013.97
2019-05-23T08:18:38.911Z,1013.94
2019-05-23T08:19:49.087Z,1013.89
2019-05-23T08:20:45.741Z,1013.89
2019-05-23T08:21:46.167Z,1013.95
2019-05-23T08:22:46.599Z,1013.90
2019-05-23T08:23:47.054Z,1013.99
2019-05-23T08:24:51.131Z,1013.89
2019-05-23T08:25:51.937Z,1013.93
2019-05-23T08:26:52.476Z,1013.86
2019-05-23T08:27:52.902Z,1013.89
2019-05-23T08:29:23.710Z,1013.83
2019-05-23T08:30:02.218Z,1013.83
2019-05-23T08:31:03.079Z,1013.87
2019-05-23T08:32:03.513Z,1013.83
2019-05-23T08:33:03.969Z,1013.85
2019-05-23T08:34:04.416Z,1013.87
2019-05-23T08:35:04.891Z,1013.77
2019-05-23T08:36:05.327Z,1013.74
2019-05-23T08:37:05.829Z,1013.82
2019-05-23T08:38:06.263Z,1013.78
2019-05-23T08:39:06.799Z,1013.81
2019-05-23T08:40:07.236Z,1013.77
2019-05-23T08:41:07.708Z,1013.79
2019-05-23T08:42:08.141Z,1013.77
2019-05-23T08:43:08.654Z,1013.78
2019-05-23T08:44:11.517Z,1013.76
2019-05-23T08:45:12.398Z,1013.75
2019-05-23T08:46:12.884Z,1013.76
2019-05-23T08:47:13.381Z,1013.76
2019-05-23T08:48:14.398Z,1013.73
2019-05-23T08:49:14.981Z,1013.76
2019-05-23T08:50:15.420Z,1013.71
2019-05-23T08:51:15.861Z,1013.73
2019-05-23T08:52:16.366Z,1013.76
2019-05-23T08:53:16.900Z,1013.74
2019-05-23T08:54:17.373Z,1013.73
2019-05-23T08:55:17.829Z,1013.77
2019-05-23T08:56:19.710Z,1013.74
2019-05-23T08:57:20.406Z,1013.72
2019-05-23T08:58:20.836Z,1013.70
2019-05-23T08:59:21.401Z,1013.71
2019-05-23T09:00:21.833Z,1013.75
2019-05-23T09:01:22.378Z,1013.73
2019-05-23T09:02:22.830Z,1013.70
2019-05-23T09:03:23.364Z,1013.72
2019-05-23T09:04:23.826Z,1013.69
2019-05-23T09:05:24.350Z,1013.69
2019-05-23T09:06:24.773Z,1013.74
2019-05-23T09:07:46.256Z,1013.70
2019-05-23T09:08:46.721Z,1013.66
2019-05-23T09:09:48.248Z,1013.64
2019-05-23T09:10:48.682Z,1013.66
2019-05-23T09:13:06.430Z,1013.63
2019-05-23T09:23:05.048Z,1013.61
2019-05-23T09:24:27.535Z,1013.56
2019-05-23T09:25:27.990Z,1013.51
2019-05-23T09:26:57.342Z,1013.59
2019-05-23T09:27:57.826Z,1013.56
2019-05-23T09:29:06.882Z,1013.55
2019-05-23T09:30:07.327Z,1013.56
2019-05-23T09:55:43.981Z,1013.51
2019-05-23T09:57:20.385Z,1013.36
2019-05-23T09:58:20.844Z,1013.42
2019-05-23T09:59:21.275Z,1013.40
2019-05-23T10:00:21.723Z,1013.34
2019-05-23T10:01:22.223Z,1013.37
2019-05-23T10:02:22.691Z,1013.32
2019-05-23T10:03:23.158Z,1013.32
2019-05-23T10:04:23.592Z,1013.32
2019-05-23T10:05:40.846Z,1013.33
2019-05-23T10:06:30.456Z,1013.32
2019-05-23T10:07:30.934Z,1013.30
2019-05-23T10:08:31.372Z,1013.32
2019-05-23T10:09:31.838Z,1013.31
2019-05-23T10:10:32.299Z,1013.29
2019-05-23T10:11:32.744Z,1013.26
2019-05-23T10:12:33.185Z,1013.16
2019-05-23T10:13:38.930Z,1013.22
2019-05-23T10:14:40.048Z,1013.21
2019-05-23T10:15:40.509Z,1013.30
2019-05-23T10:16:40.943Z,1013.31
2019-05-23T10:17:41.397Z,1013.26
2019-05-23T10:18:41.839Z,1013.30
2019-05-23T10:19:42.278Z,1013.29
2019-05-23T10:20:42.788Z,1013.25
2019-05-23T10:21:43.235Z,1013.19
2019-05-23T10:22:43.680Z,1013.19
2019-05-23T10:23:44.127Z,1013.22
2019-05-23T10:24:44.589Z,1013.16
2019-05-23T10:25:45.085Z,1013.10
2019-05-23T10:26:45.540Z,1013.10
2019-05-23T10:27:45.986Z,1013.01
2019-05-23T10:28:46.459Z,1013.09
2019-05-23T10:29:46.912Z,1013.04
2019-05-23T10:30:47.391Z,1013.04
2019-05-23T10:31:47.837Z,1013.01
2019-05-23T10:32:48.273Z,1013.02
2019-05-23T10:33:48.721Z,1013.07
2019-05-23T10:34:49.155Z,1013.06
2019-05-23T10:35:59.842Z,1013.07
2019-05-23T10:36:56.033Z,1013.05
2019-05-23T10:37:56.491Z,1013.08
2019-05-23T10:38:56.946Z,1013.07
2019-05-23T10:39:57.376Z,1013.01
2019-05-23T10:40:57.821Z,1013.06
2019-05-23T10:41:58.263Z,1013.06
2019-05-23T10:42:58.745Z,1013.02
2019-05-23T10:43:59.247Z,1012.97
2019-05-23T10:44:59.680Z,1012.97
2019-05-23T10:46:00.314Z,1013.05
2019-05-23T10:47:00.744Z,1012.95
2019-05-23T10:48:01.175Z,1012.93
2019-05-23T10:49:01.624Z,1012.89
2019-05-23T10:50:07.204Z,1012.90
2019-05-23T10:51:08.504Z,1012.87
2019-05-23T10:52:08.951Z,1012.86
2019-05-23T10:53:09.408Z,1012.83
2019-05-23T10:54:09.858Z,1012.82
2019-05-23T10:55:10.305Z,1012.84
2019-05-23T10:56:10.766Z,1012.81
2019-05-23T10:57:11.201Z,1012.83
2019-05-23T10:58:11.672Z,1012.81
2019-05-23T10:59:12.110Z,1012.77
2019-05-23T11:00:12.538Z,1012.84
2019-05-23T11:01:12.990Z,1012.82
2019-05-23T11:02:13.418Z,1012.86
2019-05-23T11:03:13.891Z,1012.79
2019-05-23T11:04:14.313Z,1012.76
2019-05-23T11:05:14.731Z,1012.70
2019-05-23T11:06:16.855Z,1012.63
2019-05-23T11:07:17.476Z,1012.69
2019-05-23T11:08:17.912Z,1012.77
2019-05-23T11:09:18.337Z,1012.71
2019-05-23T11:10:18.757Z,1012.69
2019-05-23T11:11:19.228Z,1012.64
2019-05-23T11:12:19.685Z,1012.68
2019-05-23T11:13:20.121Z,1012.60
2019-05-23T11:14:20.570Z,1012.64
2019-05-23T11:15:21.030Z,1012.59
2019-05-23T11:16:21.511Z,1012.62
2019-05-23T11:17:21.974Z,1012.63
2019-05-23T11:18:22.398Z,1012.56
2019-05-23T11:19:22.829Z,1012.54
2019-05-23T11:20:23.274Z,1012.51
2019-05-23T11:21:23.726Z,1012.54
2019-05-23T11:22:24.243Z,1012.49
2019-05-23T11:23:24.697Z,1012.49
2019-05-23T11:24:25.128Z,1012.51
2019-05-23T11:25:25.569Z,1012.52
2019-05-23T11:26:26.009Z,1012.62
2019-05-23T11:27:26.428Z,1012.53
2019-05-23T11:28:26.858Z,1012.54
2019-05-23T11:29:27.699Z,1012.50
2019-05-23T11:30:28.173Z,1012.50
2019-05-23T11:31:28.683Z,1012.50
2019-05-23T11:32:29.130Z,1012.52
2019-05-23T11:33:29.562Z,1012.55
2019-05-23T11:34:29.992Z,1012.47
2019-05-23T11:35:30.421Z,1012.43
2019-05-23T11:36:36.252Z,1012.47
2019-05-23T11:37:37.267Z,1012.40
2019-05-23T11:38:37.690Z,1012.39
2019-05-23T11:39:42.183Z,1012.39
2019-05-23T11:40:44.521Z,1012.33
2019-05-23T11:41:44.988Z,1012.39
2019-05-23T11:42:45.464Z,1012.29
2019-05-23T11:43:45.891Z,1012.30
2019-05-23T11:44:46.312Z,1012.33
2019-05-23T11:45:46.740Z,1012.34
2019-05-23T11:46:47.202Z,1012.29
2019-05-23T11:47:47.625Z,1012.34
2019-05-23T11:48:48.059Z,1012.29
2019-05-23T11:49:48.508Z,1012.32
2019-05-23T11:50:48.976Z,1012.33
2019-05-23T11:51:49.457Z,1012.43
2019-05-23T11:52:49.896Z,1012.29
2019-05-23T11:54:06.055Z,1012.26
2019-05-23T11:54:56.733Z,1012.33
2019-05-23T11:55:57.332Z,1012.31
2019-05-23T11:56:57.865Z,1012.35
2019-05-23T11:57:58.308Z,1012.32
2019-05-23T11:59:01.583Z,1012.25
2019-05-23T12:00:02.413Z,1012.24
2019-05-23T12:01:03.020Z,1012.25
2019-05-23T12:02:03.496Z,1012.23
2019-05-23T12:03:03.924Z,1012.21
2019-05-23T12:04:04.354Z,1012.15
2019-05-23T12:05:04.778Z,1012.22
2019-05-23T12:06:06.085Z,1012.20
2019-05-23T12:07:06.770Z,1012.23
2019-05-23T12:08:07.191Z,1012.18
2019-05-23T12:09:07.619Z,1012.18
2019-05-23T12:10:08.049Z,1012.22
2019-05-23T12:11:08.481Z,1012.21
2019-05-23T12:12:08.928Z,1012.08
2019-05-23T12:13:09.354Z,1012.11
2019-05-23T12:14:09.782Z,1012.14
2019-05-23T12:15:10.202Z,1012.08
2019-05-23T12:16:10.627Z,1012.08
2019-05-23T12:17:11.081Z,1012.08
2019-05-23T12:18:11.510Z,1012.13
2019-05-23T12:19:12.013Z,1012.06
2019-05-23T12:20:12.469Z,1011.99
2019-05-23T12:21:12.911Z,1012.03
2019-05-23T12:22:13.352Z,1012.03
2019-05-23T12:23:13.784Z,1012.05
2019-05-23T12:24:14.209Z,1011.99
2019-05-23T12:25:23.423Z,1012.02
2019-05-23T12:26:21.039Z,1012.00
2019-05-23T12:27:21.494Z,1011.98
2019-05-23T12:28:21.936Z,1011.93
2019-05-23T12:29:22.380Z,1011.96
2019-05-23T12:30:22.948Z,1011.95
2019-05-23T12:31:23.377Z,1011.97
2019-05-23T12:32:23.825Z,1011.96
2019-05-23T12:33:24.253Z,1011.91
2019-05-23T12:34:24.704Z,1011.86
2019-05-23T12:35:25.143Z,1011.91
2019-05-23T12:36:25.589Z,1011.83
2019-05-23T12:37:26.104Z,1011.86
2019-05-23T12:38:26.562Z,1011.83
2019-05-23T12:39:27.108Z,1011.84
2019-05-23T12:40:27.613Z,1011.86
2019-05-23T12:41:28.036Z,1011.85
2019-05-23T12:42:28.556Z,1011.79
2019-05-23T12:43:29.010Z,1011.73
2019-05-23T12:44:29.474Z,1011.79
2019-05-23T12:45:29.902Z,1011.85
2019-05-23T12:46:30.333Z,1011.78
2019-05-23T12:47:30.781Z,1011.78
2019-05-23T12:48:31.313Z,1011.77
2019-05-23T12:49:31.739Z,1011.74
2019-05-23T12:50:32.271Z,1011.75
2019-05-23T12:51:32.764Z,1011.67
2019-05-23T12:52:33.323Z,1011.83
2019-05-23T12:53:33.748Z,1011.74
2019-05-23T12:54:34.228Z,1011.65
2019-05-23T12:55:34.669Z,1011.74
2019-05-23T12:56:35.159Z,1011.72
2019-05-23T12:57:35.606Z,1011.62
2019-05-23T12:58:36.038Z,1011.62
2019-05-23T12:59:36.468Z,1011.62
2019-05-23T13:00:46.046Z,1011.56
2019-05-23T13:01:46.482Z,1011.59
2019-05-23T13:02:46.934Z,1011.59
2019-05-23T13:03:47.398Z,1011.54
2019-05-23T13:04:47.840Z,1011.57
2019-05-23T13:05:48.359Z,1011.58
2019-05-23T13:06:49.202Z,1011.55
2019-05-23T13:07:49.707Z,1011.55
2019-05-23T13:08:50.137Z,1011.56
2019-05-23T13:09:50.563Z,1011.48
2019-05-23T13:10:50.996Z,1011.55
2019-05-23T13:11:51.453Z,1011.47
2019-05-23T13:12:51.906Z,1011.51
2019-05-23T13:13:52.338Z,1011.49
2019-05-23T13:14:57.671Z,1011.53
2019-05-23T13:15:59.185Z,1011.43
2019-05-23T13:17:01.017Z,1011.42
2019-05-23T13:18:02.161Z,1011.45
2019-05-23T13:19:02.737Z,1011.44
2019-05-23T13:20:03.223Z,1011.47
2019-05-23T13:21:31.469Z,1011.39
2019-05-23T13:22:31.920Z,1011.41
2019-05-23T13:25:52.480Z,1011.39
2019-05-23T13:26:53.026Z,1011.35
2019-05-23T13:27:53.466Z,1011.30
2019-05-23T13:28:53.958Z,1011.37
2019-05-23T13:29:54.400Z,1011.46
2019-05-23T13:31:02.368Z,1011.34
2019-05-23T13:32:02.829Z,1011.37
2019-05-23T13:35:38.484Z,1011.33
2019-05-23T13:42:06.909Z,1011.33
2019-05-23T13:43:09.493Z,1011.25